Time;durP1;ratioP1;P1;durP2;ratioP2;P2;SDS_P1;SDS_P2;PMS_P1;PMS_P2;Temp;Humidity;BMP_temperature;BMP_pressure;BME280_temperature;BME280_humidity;BME280_pressure;Samples;Min_cycle;Max_cycle;Signal;HPM_P1;HPM_P2
2023/06/18 00:01:13;;;;;;;28.75;18.98;;;15.30;99.90;;;;;;5092197;28;20083;-70
2023/06/18 00:03:39;;;;;;;26.88;18.95;;;15.30;99.90;;;;;;5091665;28;20076;-70
2023/06/18 00:06:05;;;;;;;27.60;19.52;;;15.20;99.90;;;;;;5091101;28;20051;-70
2023/06/18 00:08:30;;;;;;;27.10;18.55;;;15.20;99.90;;;;;;5092352;28;20036;-70
2023/06/18 00:10:56;;;;;;;29.42;20.00;;;15.20;99.90;;;;;;5090514;28;20126;-70
2023/06/18 00:13:22;;;;;;;29.10;20.55;;;15.20;99.90;;;;;;5092667;28;20047;-70
2023/06/18 00:15:47;;;;;;;29.40;19.30;;;15.10;99.90;;;;;;5091464;28;20177;-70
2023/06/18 00:18:13;;;;;;;28.05;18.85;;;15.10;99.90;;;;;;5091688;28;20070;-70
2023/06/18 00:20:42;;;;;;;28.67;19.58;;;15.10;99.90;;;;;;5092664;28;20479;-70
2023/06/18 00:23:07;;;;;;;29.15;18.75;;;15.10;99.90;;;;;;5095345;28;20051;-70
2023/06/18 00:25:34;;;;;;;30.73;20.90;;;15.10;99.90;;;;;;5093933;28;20089;-70
2023/06/18 00:27:59;;;;;;;29.52;19.58;;;15.10;99.90;;;;;;5094940;28;20055;-70
2023/06/18 00:30:34;;;;;;;31.08;21.15;;;15.10;99.90;;;;;;5095262;28;20040;-71
2023/06/18 00:33:00;;;;;;;29.77;19.55;;;15.10;99.90;;;;;;5093715;28;20518;-70
2023/06/18 00:35:26;;;;;;;30.50;19.27;;;15.00;99.90;;;;;;5095049;28;20052;-70
2023/06/18 00:37:52;;;;;;;32.55;20.13;;;15.10;99.90;;;;;;5095744;28;20123;-70
2023/06/18 00:40:18;;;;;;;34.40;21.17;;;15.00;99.90;;;;;;5095356;28;20048;-70
2023/06/18 00:42:44;;;;;;;28.45;19.88;;;14.90;99.90;;;;;;5094836;28;20437;-70
2023/06/18 00:45:12;;;;;;;27.40;20.10;;;14.90;99.90;;;;;;5095276;28;20044;-71
2023/06/18 00:47:42;;;;;;;31.23;20.40;;;14.90;99.90;;;;;;5094679;28;20052;-70
2023/06/18 00:50:12;;;;;;;28.42;20.17;;;14.80;99.90;;;;;;5096442;28;20460;-70
2023/06/18 00:52:39;;;;;;;29.75;18.35;;;14.80;99.90;;;;;;5095804;28;20048;-70
2023/06/18 00:55:05;;;;;;;33.00;20.40;;;14.80;99.90;;;;;;5093878;28;20040;-70
2023/06/18 00:57:31;;;;;;;31.63;20.27;;;14.80;99.90;;;;;;5094757;28;20116;-70
2023/06/18 00:59:57;;;;;;;30.15;21.23;;;14.80;99.90;;;;;;5094706;28;20052;-70
2023/06/18 01:02:25;;;;;;;33.92;21.73;;;14.70;99.90;;;;;;5094706;28;20071;-70
2023/06/18 01:04:53;;;;;;;29.95;20.33;;;14.70;99.90;;;;;;5094877;28;20071;-70
2023/06/18 01:07:23;;;;;;;31.77;21.55;;;14.70;99.90;;;;;;5093275;28;20418;-70
2023/06/18 01:09:53;;;;;;;33.47;22.52;;;14.70;99.90;;;;;;5095306;28;20044;-70
2023/06/18 01:12:27;;;;;;;33.28;22.30;;;14.70;99.90;;;;;;5095948;28;20056;-70
2023/06/18 01:14:59;;;;;;;34.15;20.92;;;14.70;99.90;;;;;;5093769;28;20437;-70
2023/06/18 01:17:33;;;;;;;31.00;20.45;;;14.70;99.90;;;;;;5094646;28;20487;-70
2023/06/18 01:20:10;;;;;;;34.00;21.63;;;14.70;99.90;;;;;;5096406;28;20043;-70
2023/06/18 01:23:01;;;;;;;31.48;21.02;;;14.70;99.90;;;;;;5093331;28;20403;-70
2023/06/18 01:25:32;;;;;;;32.05;21.42;;;14.70;99.90;;;;;;5095613;28;20044;-70
2023/06/18 01:28:01;;;;;;;33.42;22.20;;;14.70;99.90;;;;;;5095987;28;20050;-70
2023/06/18 01:30:27;;;;;;;34.10;21.52;;;14.70;99.90;;;;;;5094763;28;20082;-70
2023/06/18 01:32:56;;;;;;;29.83;20.52;;;14.70;99.90;;;;;;5094946;28;20546;-70
2023/06/18 01:35:22;;;;;;;32.30;20.95;;;14.60;99.90;;;;;;5095158;28;20044;-70
2023/06/18 01:38:00;;;;;;;32.15;21.50;;;14.60;99.90;;;;;;5091772;28;20064;-70
2023/06/18 01:40:43;;;;;;;31.45;21.45;;;14.60;99.90;;;;;;5094169;28;20047;-70
2023/06/18 01:43:18;;;;;;;32.75;21.88;;;14.60;99.90;;;;;;5092358;28;20059;-70
2023/06/18 01:46:08;;;;;;;32.10;21.75;;;14.60;99.90;;;;;;5095179;28;20049;-70
2023/06/18 01:48:44;;;;;;;30.02;20.83;;;14.50;99.90;;;;;;5093229;28;20044;-70
2023/06/18 01:51:11;;;;;;;31.77;22.00;;;14.50;99.90;;;;;;5093678;28;20133;-70
2023/06/18 01:53:40;;;;;;;33.30;21.20;;;14.50;99.90;;;;;;5093839;28;20056;-70
2023/06/18 01:56:09;;;;;;;29.85;21.23;;;14.50;99.90;;;;;;5095394;28;20040;-70
2023/06/18 01:58:36;;;;;;;30.13;21.23;;;14.50;99.90;;;;;;5093835;28;20388;-71
2023/06/18 02:01:03;;;;;;;31.52;21.05;;;14.50;99.90;;;;;;5094891;28;20047;-70
2023/06/18 02:03:29;;;;;;;31.65;21.55;;;14.50;99.90;;;;;;5094882;28;20089;-70
2023/06/18 02:05:55;;;;;;;31.45;20.88;;;14.50;99.90;;;;;;5093481;28;20044;-70
2023/06/18 02:08:21;;;;;;;31.55;21.27;;;14.50;99.90;;;;;;5093756;28;20051;-70
2023/06/18 02:10:49;;;;;;;32.58;20.95;;;14.40;99.90;;;;;;5093724;28;20048;-70
2023/06/18 02:13:15;;;;;;;31.45;21.67;;;14.40;99.90;;;;;;5093650;28;20071;-70
2023/06/18 02:15:41;;;;;;;31.98;20.95;;;14.50;99.90;;;;;;5093318;28;20080;-70
2023/06/18 02:18:08;;;;;;;34.42;22.08;;;14.40;99.90;;;;;;5094542;28;20039;-70
2023/06/18 02:20:35;;;;;;;32.00;21.02;;;14.40;99.90;;;;;;5093209;28;20392;-70
2023/06/18 02:23:00;;;;;;;31.35;21.27;;;14.40;99.90;;;;;;5093208;28;20056;-70
2023/06/18 02:25:32;;;;;;;32.95;22.30;;;14.40;99.90;;;;;;5092540;28;20047;-70
2023/06/18 02:27:59;;;;;;;33.92;22.10;;;14.40;99.90;;;;;;5093092;28;20056;-70
2023/06/18 02:30:28;;;;;;;32.10;20.75;;;14.30;99.90;;;;;;5092936;28;20512;-70
2023/06/18 02:33:01;;;;;;;33.45;22.10;;;14.40;99.90;;;;;;5093345;28;20519;-70
2023/06/18 02:35:27;;;;;;;34.80;22.45;;;14.30;99.90;;;;;;5092851;28;20047;-70
2023/06/18 02:37:56;;;;;;;37.22;22.70;;;14.30;99.90;;;;;;5094305;28;20051;-70
2023/06/18 02:40:22;;;;;;;36.55;23.15;;;14.30;99.90;;;;;;5092601;28;20047;-70
2023/06/18 02:42:48;;;;;;;33.08;21.58;;;14.30;99.90;;;;;;5091534;28;20048;-70
2023/06/18 02:45:22;;;;;;;31.65;21.23;;;14.30;99.90;;;;;;5093802;28;20479;-70
2023/06/18 02:47:49;;;;;;;31.50;21.85;;;14.20;99.90;;;;;;5093545;28;20514;-70
2023/06/18 02:50:16;;;;;;;34.38;21.80;;;14.30;99.90;;;;;;5092712;28;20050;-70
2023/06/18 02:52:46;;;;;;;35.72;22.05;;;14.20;99.90;;;;;;5094051;28;20028;-70
2023/06/18 02:55:13;;;;;;;32.83;21.15;;;14.10;99.90;;;;;;5092488;28;20043;-70
2023/06/18 02:57:40;;;;;;;34.78;22.27;;;14.10;99.90;;;;;;5093731;28;20059;-70
2023/06/18 03:00:09;;;;;;;31.50;21.77;;;14.20;99.90;;;;;;5093424;28;20031;-70
2023/06/18 03:02:41;;;;;;;32.22;21.20;;;14.10;99.90;;;;;;5093899;28;20131;-71
2023/06/18 03:05:08;;;;;;;32.17;20.98;;;14.10;99.90;;;;;;5092848;28;20369;-70
2023/06/18 03:07:34;;;;;;;34.67;21.70;;;14.10;99.90;;;;;;5091647;28;20106;-70
2023/06/18 03:10:00;;;;;;;31.67;21.65;;;14.10;99.90;;;;;;5093046;28;20094;-70
2023/06/18 03:12:26;;;;;;;29.67;21.33;;;14.20;99.90;;;;;;5126529;27;20387;-70
2023/06/18 03:14:51;;;;;;;30.73;20.90;;;14.10;99.90;;;;;;5092657;28;20043;-70
2023/06/18 03:17:17;;;;;;;31.98;20.95;;;14.10;99.90;;;;;;5093607;28;20051;-70
2023/06/18 03:19:43;;;;;;;34.08;21.15;;;14.10;99.90;;;;;;5091874;28;20044;-70
2023/06/18 03:22:08;;;;;;;31.15;21.45;;;14.20;99.90;;;;;;5091599;28;20048;-70
2023/06/18 03:24:34;;;;;;;30.70;20.45;;;14.20;99.90;;;;;;5091853;28;20130;-70
2023/06/18 03:27:06;;;;;;;33.78;21.80;;;14.10;99.90;;;;;;5091554;28;20406;-71
2023/06/18 03:29:34;;;;;;;32.38;20.75;;;14.10;99.90;;;;;;5092695;28;20072;-70
2023/06/18 03:32:00;;;;;;;35.13;21.42;;;14.20;99.90;;;;;;5093811;28;20060;-70
2023/06/18 03:34:26;;;;;;;32.35;20.85;;;14.20;99.90;;;;;;5093439;28;20549;-70
2023/06/18 03:36:53;;;;;;;30.30;20.52;;;14.10;99.90;;;;;;5124735;28;20089;-71
2023/06/18 03:39:20;;;;;;;28.83;19.50;;;14.20;99.90;;;;;;5093639;28;20137;-70
2023/06/18 03:41:45;;;;;;;28.23;19.73;;;14.20;99.90;;;;;;5091192;28;20040;-70
2023/06/18 03:44:11;;;;;;;27.45;19.20;;;14.20;99.90;;;;;;5092735;28;20040;-70
2023/06/18 03:46:37;;;;;;;25.23;17.60;;;14.30;99.90;;;;;;5126284;28;20048;-70
2023/06/18 03:49:03;;;;;;;24.67;17.58;;;14.20;99.90;;;;;;5092920;28;20131;-70
2023/06/18 03:51:29;;;;;;;22.13;16.55;;;14.20;99.90;;;;;;5093238;28;20052;-70
2023/06/18 03:53:55;;;;;;;23.77;17.33;;;14.20;99.90;;;;;;5092124;28;20075;-70
2023/06/18 03:56:22;;;;;;;25.23;17.20;;;14.50;99.90;;;;;;5095818;28;20083;-70
2023/06/18 03:58:48;;;;;;;25.13;18.23;;;14.30;99.90;;;;;;5097470;28;20051;-70
2023/06/18 04:01:16;;;;;;;28.13;18.42;;;14.30;99.90;;;;;;5096648;28;20048;-70
2023/06/18 04:03:42;;;;;;;29.13;19.48;;;14.40;99.90;;;;;;5095709;28;20053;-70
2023/06/18 04:06:11;;;;;;;26.80;17.48;;;14.40;99.90;;;;;;5097205;28;20110;-71
2023/06/18 04:08:36;;;;;;;24.98;18.17;;;14.50;99.90;;;;;;5097501;28;20040;-70
2023/06/18 04:11:03;;;;;;;26.58;18.83;;;14.50;99.90;;;;;;5095346;28;20040;-70
2023/06/18 04:13:29;;;;;;;28.58;19.50;;;14.60;99.90;;;;;;5096182;28;20136;-70
2023/06/18 04:15:58;;;;;;;25.90;18.48;;;14.60;99.90;;;;;;5095661;28;20048;-70
2023/06/18 04:18:25;;;;;;;26.52;18.50;;;14.60;99.90;;;;;;5096589;28;20044;-70
2023/06/18 04:20:51;;;;;;;22.48;16.75;;;14.70;99.90;;;;;;5096776;28;20123;-71
2023/06/18 04:23:23;;;;;;;26.00;17.20;;;14.70;99.90;;;;;;5097013;28;20100;-70
2023/06/18 04:25:51;;;;;;;22.95;17.27;;;14.80;99.90;;;;;;5093406;28;20063;-70
2023/06/18 04:28:17;;;;;;;23.00;17.00;;;14.80;99.90;;;;;;5095619;28;20048;-70
2023/06/18 04:30:42;;;;;;;23.85;17.77;;;14.80;99.90;;;;;;5096094;28;20038;-71
2023/06/18 04:33:08;;;;;;;25.65;17.95;;;14.90;99.90;;;;;;5094492;28;20055;-71
2023/06/18 04:35:34;;;;;;;24.92;17.77;;;14.90;99.90;;;;;;5096469;28;20101;-71
2023/06/18 04:37:59;;;;;;;24.88;17.85;;;15.00;99.90;;;;;;5095558;28;20091;-70
2023/06/18 04:40:25;;;;;;;23.75;18.00;;;15.00;99.90;;;;;;5095481;28;20518;-70
2023/06/18 04:42:51;;;;;;;26.45;18.63;;;15.00;99.90;;;;;;5094694;28;20043;-70
2023/06/18 04:45:17;;;;;;;24.88;18.40;;;15.00;99.90;;;;;;5094592;28;20390;-71
2023/06/18 04:47:42;;;;;;;24.15;17.60;;;15.10;99.90;;;;;;5095952;28;20086;-70
2023/06/18 04:50:09;;;;;;;26.17;17.98;;;15.10;99.90;;;;;;5095074;28;20039;-71
2023/06/18 04:52:35;;;;;;;27.20;18.73;;;15.20;99.90;;;;;;5094838;28;20142;-70
2023/06/18 04:55:00;;;;;;;24.08;17.30;;;15.20;99.90;;;;;;5095554;28;20044;-70
2023/06/18 04:57:27;;;;;;;24.98;17.73;;;15.20;99.90;;;;;;5094635;28;20438;-70
2023/06/18 04:59:53;;;;;;;24.92;17.33;;;15.20;99.90;;;;;;5093317;28;20047;-70
2023/06/18 05:02:19;;;;;;;23.75;17.05;;;15.20;99.90;;;;;;5095437;28;20048;-70
2023/06/18 05:04:44;;;;;;;23.10;17.13;;;15.30;99.90;;;;;;5094680;28;20502;-70
2023/06/18 05:07:10;;;;;;;26.95;17.85;;;15.30;99.90;;;;;;5094257;28;20044;-70
2023/06/18 05:09:41;;;;;;;27.60;17.98;;;15.40;99.90;;;;;;5093998;28;20180;-70
2023/06/18 05:12:07;;;;;;;27.73;18.38;;;15.40;99.90;;;;;;5095709;28;20043;-71
2023/06/18 05:14:33;;;;;;;26.30;18.45;;;15.40;99.90;;;;;;5095174;28;20233;-70
2023/06/18 05:16:59;;;;;;;26.90;18.17;;;15.60;99.90;;;;;;5095356;28;20107;-71
2023/06/18 05:19:25;;;;;;;27.02;18.70;;;15.40;99.90;;;;;;5094551;28;20436;-71
2023/06/18 05:21:50;;;;;;;26.33;18.88;;;15.50;99.90;;;;;;5094675;28;20430;-71
2023/06/18 05:24:16;;;;;;;29.52;19.58;;;15.50;99.90;;;;;;5095212;28;20048;-71
2023/06/18 05:26:43;;;;;;;28.88;18.98;;;15.60;99.90;;;;;;5094151;28;20105;-71
2023/06/18 05:29:08;;;;;;;28.40;19.58;;;15.70;99.90;;;;;;5094703;28;20048;-70
2023/06/18 05:31:34;;;;;;;27.17;18.80;;;16.00;99.90;;;;;;5094519;28;20506;-70
2023/06/18 05:34:00;;;;;;;29.88;19.48;;;15.90;99.90;;;;;;5094304;28;20044;-71
2023/06/18 05:36:26;;;;;;;26.83;19.00;;;16.00;99.90;;;;;;5094426;28;20036;-71
2023/06/18 05:38:53;;;;;;;27.45;18.48;;;16.10;99.90;;;;;;5093725;28;20434;-70
2023/06/18 05:41:19;;;;;;;27.50;19.08;;;16.10;99.90;;;;;;5094059;28;20043;-70
2023/06/18 05:43:44;;;;;;;26.33;18.98;;;16.20;99.90;;;;;;5093249;28;20040;-70
2023/06/18 05:46:10;;;;;;;25.98;18.90;;;16.20;99.90;;;;;;5093580;28;20556;-71
2023/06/18 05:48:36;;;;;;;25.20;18.45;;;16.20;99.90;;;;;;5093695;28;20123;-69
2023/06/18 05:51:05;;;;;;;26.60;18.52;;;16.30;99.90;;;;;;5093560;28;20479;-69
2023/06/18 05:53:30;;;;;;;27.02;18.60;;;17.10;99.90;;;;;;5096004;28;20478;-69
2023/06/18 05:55:56;;;;;;;27.20;18.25;;;16.40;99.90;;;;;;5091339;28;20133;-70
2023/06/18 05:58:22;;;;;;;26.38;19.13;;;16.40;99.90;;;;;;5093880;28;20044;-70
2023/06/18 06:00:47;;;;;;;24.63;17.95;;;16.50;99.90;;;;;;5094396;28;20071;-70
2023/06/18 06:03:13;;;;;;;27.95;18.48;;;16.50;99.90;;;;;;5093850;28;20162;-69
2023/06/18 06:05:41;;;;;;;26.33;19.58;;;16.50;99.90;;;;;;5093319;28;20123;-70
2023/06/18 06:08:07;;;;;;;26.63;18.77;;;16.60;99.90;;;;;;5093077;28;20119;-70
2023/06/18 06:10:34;;;;;;;26.38;18.25;;;16.70;99.90;;;;;;5091856;28;20464;-70
2023/06/18 06:13:00;;;;;;;27.48;19.33;;;16.70;99.90;;;;;;5092596;28;20060;-70
2023/06/18 06:15:26;;;;;;;26.45;19.05;;;16.70;99.90;;;;;;5093169;28;20495;-70
2023/06/18 06:17:52;;;;;;;26.60;18.83;;;16.80;99.90;;;;;;5091823;28;20056;-70
2023/06/18 06:20:17;;;;;;;27.70;19.98;;;16.90;99.90;;;;;;5093135;28;20040;-70
2023/06/18 06:22:46;;;;;;;28.13;19.20;;;17.00;99.90;;;;;;5093874;28;20100;-70
2023/06/18 06:25:18;;;;;;;28.50;20.08;;;17.20;99.90;;;;;;5092140;28;20093;-70
2023/06/18 06:27:44;;;;;;;28.77;19.75;;;17.40;99.90;;;;;;5093774;28;20119;-70
2023/06/18 06:30:10;;;;;;;26.95;19.25;;;17.50;99.90;;;;;;5093936;28;20135;-70
2023/06/18 06:32:38;;;;;;;29.48;20.30;;;17.70;99.90;;;;;;5091329;28;20062;-70
2023/06/18 06:35:05;;;;;;;25.75;18.00;;;17.80;99.90;;;;;;5093940;28;20044;-70
2023/06/18 06:37:32;;;;;;;26.90;18.65;;;17.90;99.90;;;;;;5094023;28;20043;-70
2023/06/18 06:39:58;;;;;;;28.80;19.63;;;18.00;99.90;;;;;;5093213;28;20058;-70
2023/06/18 06:42:24;;;;;;;27.55;18.67;;;18.10;99.90;;;;;;5093476;28;20394;-70
2023/06/18 06:44:49;;;;;;;25.00;18.50;;;18.10;99.90;;;;;;5091861;28;20395;-70
2023/06/18 06:47:15;;;;;;;27.70;19.08;;;18.20;99.90;;;;;;5092256;28;20490;-70
2023/06/18 06:49:45;;;;;;;26.45;19.05;;;18.40;99.90;;;;;;5093212;28;20055;-71
2023/06/18 06:52:11;;;;;;;24.08;17.27;;;18.60;99.90;;;;;;5091644;28;20071;-70
2023/06/18 06:54:37;;;;;;;23.70;17.33;;;18.90;99.90;;;;;;5091975;28;20040;-70
2023/06/18 06:57:03;;;;;;;24.27;18.10;;;19.10;99.90;;;;;;5091069;28;20101;-71
2023/06/18 06:59:28;;;;;;;27.40;18.48;;;19.30;99.90;;;;;;5092668;28;20089;-71
2023/06/18 07:01:54;;;;;;;22.80;17.65;;;19.50;99.90;;;;;;5091418;28;20123;-71
2023/06/18 07:04:20;;;;;;;24.48;17.35;;;19.70;99.90;;;;;;5093192;28;20047;-71
2023/06/18 07:06:46;;;;;;;22.35;17.58;;;19.90;99.90;;;;;;5091970;28;20507;-71
2023/06/18 07:09:12;;;;;;;23.58;17.33;;;20.10;99.90;;;;;;5093358;28;20369;-71
2023/06/18 07:11:40;;;;;;;21.98;17.10;;;20.20;99.90;;;;;;5091246;28;20082;-71
2023/06/18 07:14:06;;;;;;;23.77;16.00;;;20.40;99.90;;;;;;5092462;28;20048;-72
2023/06/18 07:16:32;;;;;;;23.63;15.50;;;20.40;99.90;;;;;;5093245;28;20048;-72
2023/06/18 07:18:58;;;;;;;22.15;17.02;;;20.40;99.90;;;;;;5091921;28;20127;-72
2023/06/18 07:21:27;;;;;;;22.95;15.55;;;20.70;99.90;;;;;;5059245;22;20411;-71
2023/06/18 07:23:52;;;;;;;20.75;15.70;;;20.80;99.90;;;;;;5013555;28;20132;-70
2023/06/18 07:26:18;;;;;;;21.17;16.15;;;21.20;99.90;;;;;;5011811;28;20124;-71
2023/06/18 07:28:43;;;;;;;21.30;15.60;;;21.70;99.90;;;;;;5012387;28;20042;-71
2023/06/18 07:31:09;;;;;;;20.75;15.98;;;22.10;99.90;;;;;;5011679;28;20038;-70
2023/06/18 07:33:38;;;;;;;21.13;15.98;;;22.70;99.90;;;;;;5011891;28;20061;-71
2023/06/18 07:36:04;;;;;;;19.67;15.65;;;23.10;99.90;;;;;;5011961;28;20375;-70
2023/06/18 07:38:29;;;;;;;20.88;15.20;;;23.60;99.90;;;;;;5011634;28;20132;-71
2023/06/18 07:40:55;;;;;;;21.50;13.95;;;23.90;99.90;;;;;;5012088;28;20136;-71
2023/06/18 07:43:20;;;;;;;24.13;14.45;;;24.30;99.90;;;;;;5011151;28;20084;-70
2023/06/18 07:45:46;;;;;;;17.10;13.57;;;24.50;99.90;;;;;;5013190;28;20042;-70
2023/06/18 07:48:12;;;;;;;16.45;13.27;;;24.80;99.90;;;;;;5010996;28;20054;-71
2023/06/18 07:50:38;;;;;;;15.80;12.40;;;24.90;99.90;;;;;;5012633;28;20394;-71
2023/06/18 07:53:04;;;;;;;17.83;13.77;;;25.00;99.90;;;;;;5011497;28;20046;-70
2023/06/18 07:55:30;;;;;;;15.38;12.40;;;25.00;99.90;;;;;;5011048;28;20052;-71
2023/06/18 07:57:59;;;;;;;14.77;11.93;;;24.70;99.90;;;;;;5012563;28;20050;-70
2023/06/18 08:00:24;;;;;;;15.30;12.32;;;24.60;99.90;;;;;;5011357;28;20045;-71
2023/06/18 08:02:51;;;;;;;19.15;13.48;;;24.40;99.90;;;;;;5010200;28;20050;-70
2023/06/18 08:05:17;;;;;;;15.60;12.25;;;24.30;99.90;;;;;;5011351;28;20046;-70
2023/06/18 08:07:43;;;;;;;17.30;12.43;;;24.20;99.90;;;;;;5010859;28;20382;-71
2023/06/18 08:10:09;;;;;;;15.40;12.90;;;24.20;99.90;;;;;;5008464;28;20045;-72
2023/06/18 08:12:35;;;;;;;16.15;12.85;;;24.20;99.90;;;;;;5009404;28;20053;-73
2023/06/18 08:15:00;;;;;;;16.60;13.32;;;24.20;99.90;;;;;;5010390;28;20050;-74
2023/06/18 08:17:29;;;;;;;18.23;12.85;;;24.30;99.90;;;;;;5010083;28;20037;-71
2023/06/18 08:19:55;;;;;;;16.75;12.52;;;24.40;99.90;;;;;;5011698;28;20034;-72
2023/06/18 08:22:20;;;;;;;16.52;12.93;;;24.50;99.90;;;;;;5010728;28;20085;-72
2023/06/18 08:24:46;;;;;;;17.50;13.10;;;24.70;99.90;;;;;;5010414;28;20081;-72
2023/06/18 08:27:12;;;;;;;15.25;11.85;;;24.70;99.90;;;;;;5011202;28;20041;-73
2023/06/18 08:29:38;;;;;;;16.02;12.57;;;24.90;99.90;;;;;;5011653;28;20037;-73
2023/06/18 08:32:07;;;;;;;16.60;12.65;;;25.10;99.90;;;;;;5010228;28;20125;-73
2023/06/18 08:34:33;;;;;;;14.77;12.10;;;25.70;99.90;;;;;;5009610;28;20073;-73
2023/06/18 08:37:00;;;;;;;14.10;11.32;;;26.70;99.90;;;;;;5009969;28;20056;-71
2023/06/18 08:39:29;;;;;;;15.95;11.85;;;27.20;99.10;;;;;;5009441;28;20413;-70
2023/06/18 08:42:00;;;;;;;15.00;11.82;;;27.50;98.90;;;;;;5012360;28;20045;-71
2023/06/18 08:44:30;;;;;;;15.98;12.48;;;27.40;98.40;;;;;;5012810;28;20045;-71
2023/06/18 08:47:00;;;;;;;13.93;11.77;;;27.40;97.90;;;;;;5014708;28;20426;-72
2023/06/18 08:49:27;;;;;;;15.07;11.23;;;27.50;98.10;;;;;;5014809;28;20090;-74
2023/06/18 08:52:00;;;;;;;18.05;12.45;;;27.70;97.90;;;;;;5013807;28;20042;-74
2023/06/18 08:54:38;;;;;;;13.63;11.52;;;27.90;97.90;;;;;;5014001;28;20038;-74
2023/06/18 08:57:32;;;;;;;15.23;11.48;;;28.10;97.70;;;;;;5020099;28;20053;-74
2023/06/18 08:59:59;;;;;;;14.27;11.02;;;28.40;95.60;;;;;;5011872;28;20045;-74
2023/06/18 09:02:27;;;;;;;13.85;11.07;;;28.40;96.50;;;;;;5014058;28;20409;-74
2023/06/18 09:04:55;;;;;;;13.00;11.60;;;28.30;96.20;;;;;;5014371;28;20056;-73
2023/06/18 09:07:24;;;;;;;14.15;10.52;;;28.50;95.20;;;;;;5014174;28;20049;-74
2023/06/18 09:09:50;;;;;;;11.68;9.80;;;28.70;94.90;;;;;;5012786;28;20083;-73
2023/06/18 09:12:15;;;;;;;10.52;8.45;;;28.90;94.90;;;;;;5012771;28;20056;-74
2023/06/18 09:14:41;;;;;;;11.45;9.32;;;29.10;94.10;;;;;;5012441;28;20120;-74
2023/06/18 09:17:07;;;;;;;21.90;9.90;;;29.60;94.10;;;;;;5013327;28;20065;-74
2023/06/18 09:19:34;;;;;;;11.15;8.52;;;30.20;93.00;;;;;;5014349;28;20116;-74
2023/06/18 09:22:23;;;;;;;10.15;8.55;;;30.60;90.80;;;;;;5012896;28;20065;-74
2023/06/18 09:24:57;;;;;;;8.52;7.43;;;30.50;87.60;;;;;;5012748;28;20547;-73
2023/06/18 09:27:32;;;;;;;10.00;7.32;;;30.60;90.30;;;;;;5014244;28;20516;-74
2023/06/18 09:29:58;;;;;;;9.52;6.80;;;30.70;89.50;;;;;;5014635;28;20049;-73
2023/06/18 09:32:23;;;;;;;7.07;5.82;;;30.90;89.40;;;;;;5014439;28;20094;-73
2023/06/18 09:34:49;;;;;;;8.48;6.28;;;30.70;84.10;;;;;;5012366;28;20136;-72
2023/06/18 09:37:16;;;;;;;8.40;6.50;;;30.90;84.90;;;;;;5014585;28;20474;-72
2023/06/18 09:39:46;;;;;;;8.65;5.95;;;31.50;85.60;;;;;;5013273;28;20049;-74
2023/06/18 09:42:13;;;;;;;7.28;5.70;;;31.80;84.20;;;;;;5009215;28;20052;-74
2023/06/18 09:44:39;;;;;;;8.90;5.90;;;31.80;78.30;;;;;;5012189;28;20054;-72
2023/06/18 09:47:12;;;;;;;8.02;6.50;;;30.90;80.70;;;;;;5011898;28;20050;-72
2023/06/18 09:49:39;;;;;;;9.77;6.72;;;30.60;80.80;;;;;;5009537;28;20595;-74
2023/06/18 09:52:07;;;;;;;7.35;6.45;;;30.20;81.30;;;;;;5018836;28;20060;-73
2023/06/18 09:54:44;;;;;;;7.28;6.10;;;29.70;80.60;;;;;;5026098;28;20412;-71
2023/06/18 09:57:13;;;;;;;8.27;6.90;;;29.20;81.30;;;;;;5012792;28;20200;-74
2023/06/18 09:59:38;;;;;;;8.50;6.63;;;29.10;82.20;;;;;;5028916;28;20512;-72
2023/06/18 10:02:06;;;;;;;9.25;7.43;;;29.10;84.10;;;;;;5011107;28;20156;-69
2023/06/18 10:04:33;;;;;;;7.93;6.57;;;28.90;84.50;;;;;;5019802;28;20071;-69
2023/06/18 10:07:13;;;;;;;10.82;7.20;;;28.70;86.10;;;;;;5020541;28;20379;-68
2023/06/18 10:09:41;;;;;;;8.52;6.50;;;28.70;85.60;;;;;;5025797;28;20103;-70
2023/06/18 10:12:09;;;;;;;8.20;6.38;;;28.40;84.70;;;;;;5028462;28;20493;-70
2023/06/18 10:14:35;;;;;;;8.77;6.78;;;28.40;84.20;;;;;;5012719;28;20042;-71
2023/06/18 10:17:09;;;;;;;9.50;7.65;;;28.30;84.70;;;;;;5011056;28;20390;-71
2023/06/18 10:19:56;;;;;;;8.15;6.90;;;28.20;85.70;;;;;;5012730;28;20053;-71
2023/06/18 10:22:23;;;;;;;10.43;6.72;;;28.20;86.30;;;;;;5011894;28;20093;-72
2023/06/18 10:24:53;;;;;;;11.32;7.50;;;28.20;85.80;;;;;;5010644;28;20399;-73
2023/06/18 10:27:19;;;;;;;9.48;7.28;;;28.30;85.40;;;;;;5011750;28;20137;-73
2023/06/18 10:29:49;;;;;;;10.13;7.10;;;28.30;85.00;;;;;;5011830;28;20045;-72
2023/06/18 10:32:15;;;;;;;7.97;6.72;;;28.50;85.20;;;;;;5012045;28;20410;-72
2023/06/18 10:34:43;;;;;;;10.93;7.55;;;28.50;86.00;;;;;;5013139;28;20073;-72
2023/06/18 10:37:10;;;;;;;9.15;7.10;;;28.80;85.00;;;;;;5010429;28;20050;-72
2023/06/18 10:39:35;;;;;;;8.90;7.25;;;29.10;85.60;;;;;;5012780;28;20073;-73
2023/06/18 10:42:13;;;;;;;8.70;7.55;;;29.40;85.00;;;;;;5008251;28;20070;-74
2023/06/18 10:44:47;;;;;;;9.50;7.18;;;29.70;84.50;;;;;;5027505;28;20053;-74
2023/06/18 10:47:18;;;;;;;9.63;7.50;;;29.70;84.00;;;;;;5014831;28;20124;-75
2023/06/18 10:50:02;;;;;;;9.50;8.23;;;29.90;85.50;;;;;;5024694;28;20092;-75
2023/06/18 10:52:30;;;;;;;8.30;7.47;;;30.20;84.10;;;;;;5009245;28;20049;-72
2023/06/18 10:55:22;;;;;;;11.70;7.22;;;30.60;84.00;;;;;;5028060;28;20053;-74
2023/06/18 10:57:50;;;;;;;9.98;8.10;;;30.90;86.00;;;;;;5019237;28;20037;-73
2023/06/18 11:00:19;;;;;;;9.52;7.28;;;31.20;82.40;;;;;;5017998;28;20049;-73
2023/06/18 11:02:46;;;;;;;8.82;7.15;;;31.00;82.80;;;;;;5019974;28;20037;-72
2023/06/18 11:05:32;;;;;;;9.63;7.70;;;30.90;84.20;;;;;;5008663;28;20091;-72
2023/06/18 11:08:08;;;;;;;10.23;7.87;;;31.10;83.20;;;;;;5012882;28;20052;-72
2023/06/18 11:10:40;;;;;;;8.95;7.45;;;31.20;81.60;;;;;;5010911;28;20053;-72
2023/06/18 11:13:07;;;;;;;9.63;7.15;;;30.80;82.30;;;;;;5010874;28;20060;-72
2023/06/18 11:15:34;;;;;;;9.40;7.90;;;30.90;82.70;;;;;;5012625;28;20049;-73
2023/06/18 11:18:01;;;;;;;11.48;7.32;;;31.00;82.00;;;;;;5012881;28;20048;-73
2023/06/18 11:20:34;;;;;;;9.50;7.80;;;30.90;82.00;;;;;;5012143;28;20520;-72
2023/06/18 11:23:01;;;;;;;10.98;8.38;;;31.00;82.00;;;;;;5012723;28;20058;-72
2023/06/18 11:25:29;;;;;;;9.75;7.95;;;31.10;82.20;;;;;;5011392;28;20034;-72
2023/06/18 11:27:58;;;;;;;9.20;8.10;;;31.10;83.80;;;;;;5010793;28;20150;-73
2023/06/18 11:30:24;;;;;;;8.77;7.43;;;31.20;83.30;;;;;;5012883;28;20092;-72
2023/06/18 11:32:50;;;;;;;8.93;7.40;;;31.30;84.40;;;;;;5012221;28;20050;-71
2023/06/18 11:35:16;;;;;;;10.43;7.60;;;31.50;85.60;;;;;;5009355;28;20054;-73
2023/06/18 11:37:43;;;;;;;11.02;7.88;;;31.70;82.90;;;;;;5011493;28;20434;-73
2023/06/18 11:40:10;;;;;;;11.02;7.25;;;31.70;83.00;;;;;;5012005;28;20121;-73
2023/06/18 11:42:46;;;;;;;9.63;7.65;;;31.80;83.60;;;;;;5010638;28;20151;-74
2023/06/18 11:45:15;;;;;;;9.25;7.53;;;31.60;82.00;;;;;;5010882;28;20042;-74
2023/06/18 11:47:48;;;;;;;10.30;7.30;;;31.70;81.20;;;;;;5010646;28;20080;-74
2023/06/18 11:50:15;;;;;;;9.88;7.25;;;31.70;80.60;;;;;;5016608;28;20085;-73
2023/06/18 11:52:41;;;;;;;7.85;6.90;;;31.90;80.10;;;;;;5013073;28;20038;-73
2023/06/18 11:55:08;;;;;;;9.68;7.25;;;32.10;79.90;;;;;;5011307;28;20498;-71
2023/06/18 11:57:34;;;;;;;8.88;7.45;;;31.90;79.80;;;;;;5011678;28;20112;-74
2023/06/18 12:00:10;;;;;;;8.82;7.05;;;31.90;79.90;;;;;;5012235;28;20042;-74
2023/06/18 12:02:42;;;;;;;9.15;6.82;;;32.10;80.20;;;;;;5009088;28;20164;-70
2023/06/18 12:05:09;;;;;;;8.27;7.07;;;32.20;80.80;;;;;;5012155;28;20559;-70
2023/06/18 12:07:38;;;;;;;9.00;6.68;;;32.30;79.90;;;;;;5008547;28;20034;-72
2023/06/18 12:10:09;;;;;;;9.20;6.60;;;32.50;79.40;;;;;;5009189;28;20049;-71
2023/06/18 12:13:13;;;;;;;7.50;6.38;;;32.70;80.80;;;;;;5010641;28;20089;-72
2023/06/18 12:16:04;;;;;;;9.98;6.70;;;32.90;76.90;;;;;;4991450;28;20153;-71
2023/06/18 12:18:43;;;;;;;9.90;6.75;;;33.00;75.60;;;;;;5015469;28;20258;-71
2023/06/18 12:21:09;;;;;;;8.60;6.90;;;32.30;76.20;;;;;;5014309;28;20068;-74
2023/06/18 12:23:39;;;;;;;8.25;5.82;;;32.40;76.30;;;;;;5013179;28;20042;-71
2023/06/18 12:26:05;;;;;;;7.55;6.20;;;32.70;75.50;;;;;;5014571;28;20038;-74
2023/06/18 12:28:35;;;;;;;8.10;6.40;;;32.50;75.00;;;;;;5014367;28;20125;-71
2023/06/18 12:31:08;;;;;;;8.02;6.50;;;32.60;74.40;;;;;;5014258;28;20060;-73
2023/06/18 12:33:38;;;;;;;8.10;6.50;;;32.40;75.00;;;;;;5015563;28;20047;-79
2023/06/18 12:36:04;;;;;;;7.13;5.43;;;32.40;76.20;;;;;;5014749;28;20445;-73